Huvudsida
METAR-TAF:

METAR-TAF

Flygplatser :

Vágar flygplats

Sørvágur, Färöarna, Danmark

latitud: 62-04N, longitud: 007-17W, höjd: 85 m

Aktuellt väderrapport

Denna rapport gjordes för 26 minuter sedan, klockan 18:50 UTC
Vind 12 kt från sydost
Temperatur 16°C
Fuktighet 68%
Tryck 1022 hPa
Sikt 10 km eller mer

METAR: EKVG 291850Z AUTO 14012KT 9999 FEW043/// 16/10 Q1022

Tid: 21:16 (19:16 UTC)

Väderprognos

Denna rapport gjordes för 3 timmar och 56 minuter sedan, klockan 15:20 UTC
Prognos gäller från 29 kl. 15 UTC till 29 kl. 21 UTC
Vind 15 kt från syd/sydost
Sikt 10 km eller mer
Spridda moln på en höjd av 3000 ft

TAF: EKVG 291520Z 2915/2921 15015KT 9999 SCT030

Aktuella väderrapporter och prognoser från 4000 flygplatser (METAR- och TAF-rapporter).

De tillgängliga stationerna syns som gula och röda prickar på kartan.

För musen över prickarna för att se namnen på stationerna.

Klicka sedan för att få väderrapporter och prognoser.

För att ändra kartan: Klicka på de gröna knapparna med ett svart kors på för att zooma in; den gröna knappen med ett streck på för att zooma ut; eller på de gröna pilarna för angränsande kartor.


METAR-TAF: